Time;durP1;ratioP1;P1;durP2;ratioP2;P2;SDS_P1;SDS_P2;PMS_P1;PMS_P2;Temp;Humidity;BMP_temperature;BMP_pressure;BME280_temperature;BME280_humidity;BME280_pressure;Samples;Min_cycle;Max_cycle;Signal;HPM_P1;HPM_P2
2022/12/29 00:01:40;;;;;;;4.30;3.20;;;5.40;99.90;;;4.34;100.00;96923.75;5011491;28;20401;-74
2022/12/29 00:04:06;;;;;;;6.40;3.40;;;5.50;99.90;;;4.39;100.00;96924.69;4994185;28;20980;-74
2022/12/29 00:06:32;;;;;;;4.57;3.10;;;5.50;99.90;;;4.44;100.00;96922.19;5011901;28;20448;-74
2022/12/29 00:08:59;;;;;;;4.15;2.80;;;5.60;99.90;;;4.47;100.00;96932.22;5011976;28;20405;-73
2022/12/29 00:11:27;;;;;;;3.53;2.80;;;5.60;99.90;;;4.52;100.00;96921.88;5011534;28;20896;-75
2022/12/29 00:16:41;;;;;;;6.60;3.10;;;5.60;99.90;;;4.45;100.00;96913.31;5012106;28;20499;-74
2022/12/29 00:35:07;;;;;;;5.25;2.72;;;5.60;99.90;;;4.43;100.00;96901.47;5011896;28;20849;-75
2022/12/29 00:35:46;;;;;;;5.03;3.33;;;5.60;99.90;;;4.44;100.00;96893.34;5011497;28;20457;-75
2022/12/29 00:46:27;;;;;;;7.32;3.10;;;5.70;99.90;;;4.59;100.00;96893.75;5011357;28;20812;-74
2022/12/29 00:51:38;;;;;;;6.67;3.40;;;5.80;99.90;;;4.67;100.00;96885.56;5010611;28;20520;-75
2022/12/29 00:54:04;;;;;;;3.92;2.83;;;5.80;99.90;;;4.69;100.00;96882.72;5010801;28;20405;-75
2022/12/29 00:56:31;;;;;;;6.32;3.20;;;5.80;99.90;;;4.67;100.00;96880.31;5011077;28;20471;-75
2022/12/29 00:59:00;;;;;;;6.25;2.55;;;5.80;99.90;;;4.65;100.00;96881.56;5011067;28;20447;-74
2022/12/29 01:01:26;;;;;;;6.38;2.65;;;5.80;99.90;;;4.64;100.00;96890.47;5010400;28;20478;-74
2022/12/29 01:03:52;;;;;;;4.50;3.00;;;5.80;99.90;;;4.62;100.00;96885.44;5010733;28;20495;-75
2022/12/29 01:06:18;;;;;;;4.10;2.83;;;5.70;99.90;;;4.60;100.00;96878.81;5011003;28;20913;-75
2022/12/29 01:08:44;;;;;;;4.18;2.65;;;5.70;99.90;;;4.61;100.00;96880.41;5011106;28;20444;-75
2022/12/29 01:11:12;;;;;;;5.07;3.03;;;5.70;99.90;;;4.64;100.00;96893.09;5010881;28;20475;-74
2022/12/29 01:13:42;;;;;;;4.90;2.70;;;5.70;99.90;;;4.58;100.00;96889.53;5010515;28;20416;-75
2022/12/29 01:16:08;;;;;;;5.47;2.95;;;5.70;99.90;;;4.58;100.00;96896.59;5010815;28;20770;-74
2022/12/29 01:18:34;;;;;;;3.35;2.85;;;5.70;99.90;;;4.55;100.00;96902.28;5010777;28;20404;-74
2022/12/29 01:21:01;;;;;;;7.43;3.50;;;5.70;99.90;;;4.55;100.00;96905.72;5010633;28;20407;-74
2022/12/29 01:23:27;;;;;;;6.53;3.00;;;5.70;99.90;;;4.57;100.00;96901.06;5009817;28;20952;-74
2022/12/29 01:25:53;;;;;;;6.43;3.10;;;5.70;99.90;;;4.58;100.00;96894.78;5010601;28;20833;-74
2022/12/29 01:28:19;;;;;;;7.25;3.10;;;5.70;99.90;;;4.59;100.00;96893.75;5010662;28;20415;-74
2022/12/29 01:30:46;;;;;;;4.50;2.83;;;5.70;99.90;;;4.62;100.00;96895.91;5010526;28;20950;-73
2022/12/29 01:33:12;;;;;;;6.65;2.95;;;5.80;99.90;;;4.65;100.00;96900.72;5009492;28;20416;-74
2022/12/29 01:35:38;;;;;;;4.93;2.73;;;5.80;99.90;;;4.76;100.00;96901.75;5010548;28;20454;-73
2022/12/29 01:38:04;;;;;;;4.50;2.67;;;5.80;99.90;;;4.77;100.00;96900.72;5010550;28;20443;-74
2022/12/29 01:40:30;;;;;;;2.85;2.38;;;5.90;99.90;;;4.82;100.00;96897.41;5010234;28;20416;-74
2022/12/29 01:42:56;;;;;;;5.10;2.97;;;5.90;99.90;;;4.88;100.00;96896.53;5009576;28;20848;-74
2022/12/29 01:45:22;;;;;;;3.80;2.90;;;6.00;99.90;;;4.91;100.00;96899.50;5010402;28;20493;-74
2022/12/29 01:47:55;;;;;;;4.78;2.58;;;6.00;99.90;;;4.94;100.00;96901.69;5010373;28;20885;-74
2022/12/29 01:50:36;;;;;;;7.55;2.80;;;6.00;99.90;;;4.99;100.00;96900.97;4992686;28;20462;-75
2022/12/29 01:53:08;;;;;;;5.53;2.50;;;6.10;99.90;;;5.02;100.00;96897.91;5009214;28;20484;-74
2022/12/29 01:55:40;;;;;;;4.72;2.40;;;6.10;99.90;;;5.03;100.00;96905.56;5010259;28;20408;-74
2022/12/29 01:58:07;;;;;;;6.63;2.80;;;6.10;99.90;;;5.01;100.00;96899.75;5010288;28;20550;-73
2022/12/29 02:00:33;;;;;;;6.68;2.40;;;6.10;99.90;;;5.09;100.00;96890.72;5010186;28;20494;-74
2022/12/29 02:03:00;;;;;;;3.35;2.13;;;6.20;99.90;;;5.19;100.00;96892.78;5009352;28;20409;-72
2022/12/29 02:05:33;;;;;;;3.40;2.55;;;6.30;99.90;;;5.24;100.00;96887.66;5010172;28;20409;-72
2022/12/29 02:08:01;;;;;;;4.47;2.55;;;6.30;99.90;;;5.24;100.00;96877.97;5010167;28;20484;-72
2022/12/29 02:10:31;;;;;;;3.58;2.20;;;6.30;99.90;;;5.26;100.00;96875.88;5010053;28;20431;-75
2022/12/29 02:12:57;;;;;;;6.45;2.70;;;6.40;99.90;;;5.22;100.00;96869.50;5012263;28;20424;-75
2022/12/29 02:15:42;;;;;;;4.28;2.30;;;6.30;99.90;;;5.23;100.00;96871.09;5016590;28;20412;-74
2022/12/29 02:18:25;;;;;;;6.13;2.60;;;6.30;99.90;;;5.20;100.00;96866.31;5016491;28;20401;-74
2022/12/29 02:21:27;;;;;;;4.78;2.40;;;6.30;99.90;;;5.16;100.00;96859.94;5016285;28;20420;-74
2022/12/29 02:24:43;;;;;;;5.38;2.30;;;6.30;99.90;;;5.18;100.00;96865.75;5016031;28;20404;-72
2022/12/29 02:27:50;;;;;;;6.22;2.22;;;6.30;99.90;;;5.11;100.00;96867.72;5004998;28;20474;-74
2022/12/29 02:30:43;;;;;;;3.95;2.30;;;6.20;99.90;;;5.15;100.00;96863.59;4998802;28;20412;-73
2022/12/29 02:33:23;;;;;;;3.80;2.40;;;6.20;99.90;;;5.14;100.00;96871.69;5015489;28;20443;-74
2022/12/29 02:36:01;;;;;;;3.20;2.40;;;6.30;99.90;;;5.13;100.00;96867.44;5016702;28;20877;-74
2022/12/29 02:38:47;;;;;;;5.17;2.30;;;6.20;99.90;;;5.11;100.00;96867.72;5018073;28;20474;-74
2022/12/29 02:41:21;;;;;;;5.38;2.63;;;6.20;99.90;;;5.10;100.00;96860.84;5016780;28;20440;-74
2022/12/29 02:43:55;;;;;;;4.97;2.35;;;6.20;99.90;;;5.07;100.00;96862.09;5015009;28;20408;-74
2022/12/29 02:46:29;;;;;;;4.25;2.33;;;6.20;99.90;;;5.09;100.00;96859.25;5024390;28;20883;-74
2022/12/29 02:49:05;;;;;;;4.75;2.60;;;6.20;99.90;;;5.07;100.00;96853.44;5027748;28;20394;-74
2022/12/29 02:51:37;;;;;;;3.45;2.40;;;6.20;99.90;;;5.06;100.00;96843.97;5027175;28;20488;-75
2022/12/29 02:56:48;;;;;;;4.80;2.40;;;6.20;99.90;;;5.07;100.00;96853.44;5020694;28;20443;-74
2022/12/29 02:59:14;;;;;;;8.05;2.90;;;6.20;99.90;;;5.15;100.00;96854.91;5036031;28;20793;-75
2022/12/29 03:02:16;;;;;;;5.75;2.42;;;6.20;99.90;;;5.17;100.00;96861.53;5035565;28;20457;-74
2022/12/29 03:05:03;;;;;;;5.00;2.20;;;6.30;99.90;;;5.21;100.00;96849.53;5035797;28;20390;-74
2022/12/29 03:07:40;;;;;;;3.55;2.33;;;6.30;99.90;;;5.15;100.00;96852.28;5035944;28;20399;-74
2022/12/29 03:10:23;;;;;;;3.80;2.35;;;6.30;99.90;;;5.15;100.00;96844.41;5035863;28;20494;-75
2022/12/29 03:16:04;;;;;;;5.40;2.50;;;6.20;99.90;;;5.11;100.00;96857.22;5024575;28;20419;-74
2022/12/29 03:18:43;;;;;;;4.53;2.20;;;6.20;99.90;;;5.13;100.00;96847.25;5032210;28;20391;-74
2022/12/29 03:21:17;;;;;;;4.28;2.33;;;6.20;99.90;;;5.20;100.00;96844.50;5024101;28;20818;-74
2022/12/29 03:23:47;;;;;;;3.30;2.33;;;6.30;99.90;;;5.21;100.00;96839.03;5030450;28;20831;-74
2022/12/29 03:26:18;;;;;;;6.38;2.40;;;6.30;99.90;;;5.28;100.00;96831.84;5027910;28;20470;-74
2022/12/29 03:28:50;;;;;;;3.22;2.08;;;6.40;99.90;;;5.33;100.00;96831.19;5032597;28;20403;-74
2022/12/29 03:31:17;;;;;;;4.20;2.40;;;6.40;99.90;;;5.33;100.00;96821.47;5032112;28;20403;-75
2022/12/29 03:33:46;;;;;;;3.15;2.20;;;6.40;99.90;;;5.37;100.00;96829.66;5031995;28;20449;-74
2022/12/29 03:36:20;;;;;;;4.90;2.20;;;6.40;99.90;;;5.43;100.00;96829.53;5032508;28;21337;-74
2022/12/29 03:38:51;;;;;;;5.85;2.60;;;6.50;99.90;;;5.53;100.00;96817.66;5032421;28;20406;-74
2022/12/29 03:41:22;;;;;;;4.10;2.15;;;6.60;99.90;;;5.68;100.00;96816.13;5140538;22;20782;-76
2022/12/29 03:43:48;;;;;;;6.07;2.33;;;6.70;99.90;;;6.06;100.00;96817.38;5031838;28;20418;-76
2022/12/29 03:46:14;;;;;;;5.30;2.20;;;7.00;99.90;;;6.15;100.00;96808.88;5014368;28;20494;-76
2022/12/29 03:48:40;;;;;;;3.60;2.40;;;7.10;99.90;;;6.23;100.00;96805.06;5032210;28;20422;-76
2022/12/29 03:51:07;;;;;;;5.28;2.25;;;7.20;99.90;;;6.25;100.00;96794.28;5024368;28;20405;-76
2022/12/29 03:53:33;;;;;;;4.05;2.28;;;7.30;99.90;;;6.37;100.00;96784.53;5011271;28;20424;-77
2022/12/29 03:55:59;;;;;;;3.00;2.20;;;7.40;99.90;;;6.46;100.00;96790.97;5012395;28;20485;-76
2022/12/29 03:58:25;;;;;;;3.85;2.20;;;7.50;99.90;;;6.41;100.00;96799.56;5012389;28;20901;-77
2022/12/29 04:00:50;;;;;;;4.15;2.40;;;7.50;99.90;;;6.44;100.00;96799.09;5012233;28;20428;-76
2022/12/29 04:03:16;;;;;;;4.82;2.42;;;7.50;99.90;;;6.44;100.00;96809.63;5011245;28;20451;-77
2022/12/29 04:05:42;;;;;;;4.50;2.00;;;7.40;99.90;;;6.37;100.00;96806.34;5012228;28;20488;-77
2022/12/29 04:08:09;;;;;;;7.28;2.60;;;7.40;99.90;;;6.33;100.00;96799.16;5012116;28;20471;-76
2022/12/29 04:10:35;;;;;;;3.92;2.05;;;7.40;99.90;;;6.31;100.00;96798.63;5011943;28;20890;-76
2022/12/29 04:13:01;;;;;;;5.40;2.37;;;7.30;99.90;;;6.50;100.00;96806.03;5027003;28;20450;-77
2022/12/29 04:15:27;;;;;;;3.67;2.17;;;7.60;99.90;;;6.50;100.00;96807.84;5031723;28;20976;-76
2022/12/29 04:17:53;;;;;;;4.80;2.10;;;7.60;99.90;;;6.53;100.00;96815.28;5031691;28;20522;-77
2022/12/29 04:23:04;;;;;;;4.93;2.30;;;7.40;99.90;;;6.47;100.00;96835.41;5030789;28;20414;-77
2022/12/29 04:25:33;;;;;;;3.28;2.10;;;7.60;99.90;;;6.62;100.00;96845.38;5031503;28;20832;-76
2022/12/29 04:27:59;;;;;;;4.88;2.40;;;7.60;99.90;;;6.78;100.00;96835.91;5031618;28;20411;-76
2022/12/29 04:30:25;;;;;;;5.80;2.90;;;7.60;99.90;;;6.74;100.00;96830.34;5031422;28;20896;-77
2022/12/29 04:32:51;;;;;;;4.07;2.15;;;7.70;99.90;;;6.74;100.00;96832.16;5030525;28;20418;-77
2022/12/29 04:35:17;;;;;;;3.63;2.35;;;7.70;99.90;;;6.91;100.00;96840.84;5030480;28;20912;-77
2022/12/29 04:37:43;;;;;;;4.90;2.40;;;7.80;99.90;;;6.90;100.00;96820.84;5031376;28;20492;-76
2022/12/29 04:40:11;;;;;;;4.43;2.00;;;7.90;99.90;;;6.95;100.00;96819.06;5031250;28;20422;-76
2022/12/29 04:42:38;;;;;;;6.32;2.40;;;7.90;99.90;;;6.97;100.00;96822.25;5030308;28;20399;-76
2022/12/29 04:45:06;;;;;;;3.40;2.30;;;8.00;99.90;;;7.08;100.00;96810.03;5031282;28;20487;-77
2022/12/29 04:47:31;;;;;;;3.83;2.38;;;8.00;99.90;;;7.17;100.00;96813.84;5031075;28;20446;-76
2022/12/29 04:49:57;;;;;;;5.57;2.50;;;8.10;99.90;;;7.42;100.00;96812.59;5013347;28;20534;-77
2022/12/29 04:52:23;;;;;;;3.15;2.10;;;8.30;99.90;;;7.25;100.00;96829.22;5030350;28;20411;-76
2022/12/29 04:54:49;;;;;;;3.90;2.47;;;8.30;99.90;;;7.40;100.00;96828.63;5030694;28;20919;-76
2022/12/29 04:57:15;;;;;;;5.22;2.55;;;8.40;99.90;;;7.41;100.00;96826.78;5030873;28;20409;-76
2022/12/29 04:59:42;;;;;;;3.53;2.27;;;8.40;99.90;;;7.39;100.00;96825.19;5013285;28;20447;-76
2022/12/29 05:02:08;;;;;;;3.85;2.15;;;8.40;99.90;;;7.42;100.00;96823.13;5030150;28;20415;-77
2022/12/29 05:04:34;;;;;;;4.90;2.35;;;8.40;99.90;;;7.41;100.00;96834.69;5030568;28;20403;-76
2022/12/29 05:07:00;;;;;;;5.83;2.40;;;8.40;99.90;;;7.21;100.00;96817.59;5030841;28;20538;-76
2022/12/29 05:09:25;;;;;;;8.32;2.40;;;8.20;99.90;;;7.14;100.00;96818.81;5030789;28;20929;-77
2022/12/29 05:11:51;;;;;;;5.72;2.33;;;8.10;99.90;;;7.07;100.00;96820.81;5029958;28;20403;-77
2022/12/29 05:14:17;;;;;;;4.45;2.47;;;8.10;99.90;;;7.05;100.00;96818.41;5027825;28;20418;-77
2022/12/29 05:16:44;;;;;;;3.83;2.57;;;8.10;99.90;;;7.29;100.00;96811.13;5010998;28;20484;-76
2022/12/29 05:19:10;;;;;;;2.92;2.40;;;8.30;99.90;;;7.13;100.00;96806.69;5010820;28;20427;-77
2022/12/29 05:21:36;;;;;;;4.40;2.40;;;8.20;99.90;;;7.14;100.00;96819.59;5010261;28;20405;-76
2022/12/29 05:24:03;;;;;;;6.13;2.67;;;8.10;99.90;;;7.10;100.00;96797.44;5010496;28;20956;-77
2022/12/29 05:26:28;;;;;;;7.57;2.70;;;8.10;99.90;;;7.23;100.00;96799.69;5010811;28;20435;-77
2022/12/29 05:28:54;;;;;;;4.72;2.60;;;8.20;99.90;;;7.07;100.00;96805.81;5010748;28;20508;-77
2022/12/29 05:31:20;;;;;;;4.35;2.58;;;8.10;99.90;;;7.12;100.00;96811.16;5009812;28;20401;-77
2022/12/29 05:33:48;;;;;;;6.25;2.90;;;8.10;99.90;;;7.32;100.00;96827.19;5010143;28;20507;-77
2022/12/29 05:36:14;;;;;;;4.90;2.65;;;8.20;99.90;;;7.24;100.00;96826.81;5010524;28;20766;-77
2022/12/29 05:38:39;;;;;;;4.30;2.47;;;8.30;99.90;;;7.25;100.00;96820.53;5010601;28;20404;-77
2022/12/29 05:41:05;;;;;;;6.87;2.97;;;8.30;99.90;;;7.35;100.00;96810.94;5010355;28;21044;-77
2022/12/29 05:43:31;;;;;;;4.80;2.63;;;8.40;99.90;;;7.42;100.00;96804.69;5009650;28;20454;-75
2022/12/29 05:45:58;;;;;;;3.90;2.53;;;8.40;99.90;;;7.45;100.00;96806.81;5010392;28;20408;-77
2022/12/29 05:48:24;;;;;;;6.07;2.38;;;8.40;99.90;;;7.37;100.00;96800.94;5009776;28;20448;-77
2022/12/29 05:50:51;;;;;;;5.80;2.67;;;8.40;99.90;;;7.45;100.00;96809.44;5010305;28;20437;-77
2022/12/29 05:53:18;;;;;;;4.45;2.65;;;8.40;99.90;;;7.42;100.00;96809.94;5009383;28;20478;-77
2022/12/29 05:55:46;;;;;;;4.72;2.70;;;8.40;99.90;;;7.55;100.00;96815.63;5010553;28;20762;-75
2022/12/29 05:58:13;;;;;;;3.58;2.40;;;8.50;99.90;;;7.61;100.00;96798.84;5010225;28;20479;-76
2022/12/29 06:00:39;;;;;;;2.65;2.10;;;8.60;99.90;;;7.64;100.00;96805.47;4992599;28;20862;-75
2022/12/29 06:03:05;;;;;;;4.72;2.30;;;8.60;99.90;;;7.67;100.00;96803.13;5009301;28;20405;-75
2022/12/29 06:05:30;;;;;;;4.15;2.10;;;8.70;99.90;;;7.71;100.00;96792.91;5010240;28;20408;-75
2022/12/29 06:07:58;;;;;;;3.88;2.42;;;8.80;99.90;;;7.77;100.00;96778.75;5010241;28;20409;-76
2022/12/29 06:10:24;;;;;;;3.90;2.30;;;8.70;99.90;;;7.89;100.00;96766.25;5010390;28;20455;-77
2022/12/29 06:12:49;;;;;;;8.23;4.60;;;8.80;99.90;;;7.78;100.00;96770.59;5009171;28;20420;-74
2022/12/29 06:15:16;;;;;;;7.30;3.38;;;8.80;99.90;;;7.80;100.00;96766.91;5010107;28;20409;-77
2022/12/29 06:17:42;;;;;;;4.97;2.50;;;8.80;99.90;;;7.69;100.00;96769.44;5010123;28;20412;-77
2022/12/29 06:20:10;;;;;;;5.23;2.60;;;8.70;99.90;;;7.73;100.00;96770.56;5010005;28;20408;-77
2022/12/29 06:22:36;;;;;;;4.47;2.15;;;8.70;99.90;;;7.76;100.00;96770.03;5009063;28;20413;-75
2022/12/29 06:25:05;;;;;;;6.28;2.67;;;8.70;99.90;;;7.66;100.00;96777.84;5009912;28;20435;-76
2022/12/29 06:27:31;;;;;;;5.88;2.45;;;8.70;99.90;;;7.78;100.00;96770.59;5009937;28;20410;-76
2022/12/29 06:29:57;;;;;;;4.00;2.63;;;8.70;99.90;;;7.88;100.00;96782.28;5010160;28;20612;-76
2022/12/29 06:32:23;;;;;;;7.40;2.60;;;8.70;99.90;;;7.82;100.00;96784.06;5009194;28;20416;-76
2022/12/29 06:34:49;;;;;;;6.28;2.40;;;8.90;99.90;;;7.71;100.00;96782.38;5009652;28;20474;-76
2022/12/29 06:37:15;;;;;;;5.20;2.33;;;8.70;99.90;;;7.57;100.00;96778.53;5009850;28;20878;-77
2022/12/29 06:39:41;;;;;;;2.60;2.15;;;8.60;99.90;;;7.46;100.00;96782.88;5009924;28;20428;-76
2022/12/29 06:42:09;;;;;;;4.50;2.33;;;8.50;99.90;;;7.43;100.00;96786.00;5009014;28;20976;-76
2022/12/29 06:44:35;;;;;;;7.45;2.45;;;8.50;99.90;;;7.55;100.00;96785.88;5009511;28;20401;-76
2022/12/29 06:47:00;;;;;;;4.50;2.40;;;8.50;99.90;;;7.64;100.00;96787.03;4992374;28;20511;-75
2022/12/29 06:49:26;;;;;;;5.00;2.13;;;8.60;99.90;;;7.70;100.00;96780.78;4992291;28;20507;-77
2022/12/29 06:51:52;;;;;;;3.67;2.20;;;8.70;99.90;;;7.62;100.00;96783.84;5008939;28;20404;-76
2022/12/29 06:54:18;;;;;;;5.07;2.27;;;8.60;99.90;;;7.56;100.00;96774.31;5009326;28;20412;-76
2022/12/29 06:56:44;;;;;;;6.07;2.47;;;8.60;99.90;;;7.76;100.00;96782.41;5009639;28;20878;-76
2022/12/29 06:59:11;;;;;;;4.65;2.10;;;8.70;99.90;;;7.68;100.00;96780.22;5011395;28;20454;-76
2022/12/29 07:01:37;;;;;;;4.78;2.10;;;8.70;99.90;;;7.65;100.00;96788.63;5012745;28;20445;-76
2022/12/29 07:04:04;;;;;;;7.20;2.60;;;8.70;99.90;;;7.63;100.00;96783.59;5013021;28;20967;-76
2022/12/29 07:06:30;;;;;;;4.90;2.30;;;8.70;99.90;;;7.71;100.00;96780.53;5013335;28;20455;-76
2022/12/29 07:08:57;;;;;;;5.68;2.92;;;8.70;99.90;;;7.76;100.00;96782.41;5006439;28;20839;-75
2022/12/29 07:11:23;;;;;;;5.23;2.10;;;8.70;99.90;;;7.62;100.00;96778.56;4997644;28;20431;-74
2022/12/29 07:13:50;;;;;;;6.87;2.70;;;8.70;99.90;;;7.73;100.00;96782.94;5002428;28;20424;-75
2022/12/29 07:16:18;;;;;;;6.05;2.53;;;8.80;99.90;;;7.74;100.00;96787.16;5005484;28;20413;-76
2022/12/29 07:18:44;;;;;;;4.23;2.13;;;8.80;99.90;;;7.74;100.00;96787.16;4998891;28;20409;-76
2022/12/29 07:21:10;;;;;;;3.85;2.20;;;8.80;99.90;;;7.73;100.00;96794.25;5009220;28;20431;-75
2022/12/29 07:23:36;;;;;;;5.70;2.25;;;8.70;99.90;;;7.59;100.00;96800.16;5006948;28;20814;-75
2022/12/29 07:26:03;;;;;;;4.93;2.28;;;8.60;99.90;;;7.47;100.00;96791.56;5004295;28;20481;-76
2022/12/29 07:28:31;;;;;;;4.57;2.50;;;8.50;99.90;;;7.42;100.00;96796.78;4988122;28;20504;-76
2022/12/29 07:30:57;;;;;;;5.70;2.17;;;8.40;99.90;;;7.28;100.00;96797.16;4996604;28;20410;-75
2022/12/29 07:33:24;;;;;;;4.30;2.22;;;8.40;99.90;;;7.23;100.00;96812.88;5008254;28;20775;-76
2022/12/29 07:35:50;;;;;;;3.65;2.20;;;8.30;99.90;;;7.21;100.00;96806.28;4999744;28;20774;-75
2022/12/29 07:38:16;;;;;;;4.55;2.20;;;8.20;99.90;;;7.14;100.00;96798.53;5001988;28;20407;-76
2022/12/29 07:40:42;;;;;;;3.20;2.10;;;8.20;99.90;;;7.15;100.00;96791.44;5006487;28;20412;-75
2022/12/29 07:43:08;;;;;;;3.75;2.38;;;8.20;99.90;;;7.13;100.00;96801.41;4995242;28;20398;-76
2022/12/29 07:45:34;;;;;;;4.30;2.55;;;8.10;99.90;;;7.04;100.00;96805.50;5012093;28;20925;-75
2022/12/29 07:48:02;;;;;;;4.60;2.23;;;8.10;99.90;;;7.05;100.00;96801.84;5007991;28;20467;-74
2022/12/29 07:50:29;;;;;;;2.53;2.10;;;8.10;99.90;;;7.09;100.00;96806.34;4994919;28;21005;-76
2022/12/29 07:52:55;;;;;;;5.18;2.80;;;8.10;99.90;;;7.07;100.00;96808.44;5007064;28;20421;-77
2022/12/29 07:55:21;;;;;;;3.65;2.42;;;8.10;99.90;;;7.15;100.00;96797.50;4995279;28;20434;-74
2022/12/29 07:57:47;;;;;;;4.50;2.50;;;8.20;99.90;;;7.14;100.00;96795.88;5002072;28;20406;-75
2022/12/29 08:00:15;;;;;;;5.50;2.30;;;8.20;99.90;;;7.15;100.00;96794.06;5006237;28;20881;-75
2022/12/29 08:02:40;;;;;;;3.17;2.30;;;8.20;99.90;;;7.11;100.00;96798.22;5003677;28;20397;-74
2022/12/29 08:05:07;;;;;;;4.63;2.73;;;8.10;99.90;;;7.02;100.00;96794.41;5003053;28;20449;-73
2022/12/29 08:07:34;;;;;;;7.47;2.45;;;8.10;99.90;;;6.99;100.00;96803.59;5007498;28;20416;-75
2022/12/29 08:10:01;;;;;;;3.78;2.30;;;8.00;99.90;;;7.02;100.00;96811.00;5006481;28;20463;-74
2022/12/29 08:12:27;;;;;;;3.72;2.28;;;8.00;99.90;;;7.04;100.00;96824.72;5004366;28;20423;-72
2022/12/29 08:14:53;;;;;;;4.95;2.28;;;8.00;99.90;;;7.05;100.00;96830.78;5003969;28;20447;-73
2022/12/29 08:17:19;;;;;;;4.53;2.33;;;8.10;99.90;;;7.12;100.00;96836.66;5008995;28;20424;-74
2022/12/29 08:19:45;;;;;;;3.30;2.20;;;8.20;99.90;;;7.10;100.00;96830.84;5010602;28;20493;-73
2022/12/29 08:22:11;;;;;;;4.87;2.27;;;8.10;99.90;;;7.10;100.00;96836.91;4992888;28;20964;-73
2022/12/29 08:24:38;;;;;;;4.32;2.03;;;8.10;99.90;;;7.11;100.00;96838.50;5011397;28;20487;-73
2022/12/29 08:27:04;;;;;;;4.63;2.10;;;8.10;99.90;;;7.10;100.00;96836.09;5011771;28;20902;-73
2022/12/29 08:29:30;;;;;;;3.65;2.20;;;8.10;99.90;;;7.19;100.00;96830.19;4994091;28;20409;-73
2022/12/29 08:31:56;;;;;;;9.98;2.72;;;8.20;99.90;;;7.28;100.00;96831.38;5010975;28;20495;-72
2022/12/29 08:34:22;;;;;;;3.80;2.40;;;8.20;99.90;;;7.35;100.00;96826.72;5011312;28;20421;-73
2022/12/29 08:36:48;;;;;;;4.95;2.47;;;8.30;99.90;;;7.38;100.00;96822.78;5011629;28;20405;-73
2022/12/29 08:39:14;;;;;;;4.45;2.03;;;8.40;99.90;;;7.44;100.00;96811.31;5011524;28;20405;-73
2022/12/29 08:41:41;;;;;;;6.00;2.40;;;8.40;99.90;;;7.47;100.00;96802.91;5010738;28;20411;-73
2022/12/29 08:44:08;;;;;;;5.05;2.25;;;8.50;99.90;;;7.47;100.00;96810.81;5010828;28;20397;-73
2022/12/29 08:46:34;;;;;;;3.60;2.37;;;8.50;99.90;;;7.49;100.00;96814.00;4990589;28;20421;-73
2022/12/29 08:49:00;;;;;;;4.88;2.28;;;8.50;99.90;;;7.51;100.00;96821.66;4998216;28;20409;-74
2022/12/29 08:51:25;;;;;;;3.65;2.20;;;8.50;99.90;;;7.48;100.00;96816.88;4999072;28;20410;-74
2022/12/29 08:53:52;;;;;;;4.57;2.40;;;8.50;99.90;;;7.48;100.00;96817.66;5002633;28;20468;-74
2022/12/29 08:56:18;;;;;;;5.57;2.30;;;8.50;99.90;;;7.45;100.00;96820.78;5003390;28;20488;-74
2022/12/29 08:58:45;;;;;;;3.38;2.08;;;8.50;99.90;;;7.58;100.00;96825.69;5001783;28;20428;-73
2022/12/29 09:01:12;;;;;;;3.90;2.25;;;8.50;99.90;;;7.51;100.00;96819.81;5006515;28;20413;-73
2022/12/29 09:03:38;;;;;;;7.43;2.60;;;8.50;99.90;;;7.62;100.00;96828.63;5006972;28;20421;-73
2022/12/29 09:06:04;;;;;;;4.15;2.40;;;8.60;99.90;;;7.84;100.00;96820.69;5016721;28;20475;-74
2022/12/29 09:08:29;;;;;;;2.50;2.07;;;8.80;99.90;;;7.90;100.00;96831.03;5020696;28;20803;-74
2022/12/29 09:11:04;;;;;;;5.70;2.20;;;8.80;99.90;;;7.90;100.00;96835.50;5000148;28;20478;-73
2022/12/29 09:13:30;;;;;;;3.15;2.22;;;8.90;99.90;;;7.92;100.00;96850.03;5002604;28;20429;-74
2022/12/29 09:15:59;;;;;;;4.15;2.00;;;8.90;99.90;;;8.05;100.00;96849.66;5006419;28;20423;-73
2022/12/29 09:18:25;;;;;;;3.72;1.95;;;9.00;99.90;;;8.09;100.00;96845.50;5009756;28;20444;-73
2022/12/29 09:20:57;;;;;;;3.50;2.10;;;9.00;99.90;;;8.10;100.00;96848.94;5008126;28;20491;-74
2022/12/29 09:23:23;;;;;;;3.70;2.37;;;9.10;99.90;;;8.15;100.00;96859.53;5005221;28;20976;-73
2022/12/29 09:25:49;;;;;;;4.70;2.30;;;9.10;99.90;;;8.21;100.00;96863.78;4990618;28;20425;-75
2022/12/29 09:28:15;;;;;;;4.43;2.25;;;9.20;99.90;;;8.40;100.00;96851.09;5005708;28;20401;-74
2022/12/29 09:30:42;;;;;;;4.77;1.97;;;9.30;99.90;;;8.46;100.00;96858.00;5004194;28;20453;-74
2022/12/29 09:33:09;;;;;;;5.55;2.20;;;9.40;99.90;;;8.65;100.00;96858.41;4997212;28;20500;-74
2022/12/29 09:35:35;;;;;;;8.27;2.28;;;9.50;99.90;;;8.68;100.00;96858.72;5002802;28;20423;-74
2022/12/29 09:38:01;;;;;;;4.57;2.35;;;9.60;99.90;;;8.70;100.00;96869.84;5010392;28;20409;-73
2022/12/29 09:40:31;;;;;;;5.13;2.13;;;9.60;99.90;;;8.69;100.00;96867.44;5004100;28;20433;-72
2022/12/29 09:43:32;;;;;;;4.15;2.50;;;9.60;99.90;;;8.75;100.00;96863.78;5038865;23;20434;-73
2022/12/29 09:46:13;;;;;;;6.38;2.60;;;9.70;99.90;;;9.14;100.00;96862.50;5023468;28;20768;-73
2022/12/29 09:48:47;;;;;;;5.85;2.20;;;10.00;99.90;;;9.38;100.00;96864.75;5026980;28;20410;-73
2022/12/29 09:51:18;;;;;;;7.32;2.10;;;10.20;99.90;;;9.42;100.00;96863.97;5019189;28;20890;-72
2022/12/29 09:53:51;;;;;;;3.15;1.88;;;10.30;99.90;;;9.56;100.00;96859.03;5022602;28;20797;-73
2022/12/29 09:56:23;;;;;;;4.57;1.90;;;10.40;99.90;;;9.85;100.00;96862.09;5019763;28;21041;-73
2022/12/29 09:58:54;;;;;;;3.35;2.20;;;10.60;99.90;;;10.27;100.00;96865.41;5038017;28;20458;-73
2022/12/29 10:01:30;;;;;;;3.50;2.03;;;10.90;99.90;;;10.00;100.00;96867.41;5041945;28;20426;-73
2022/12/29 10:04:02;;;;;;;3.28;1.80;;;10.90;99.90;;;9.87;100.00;96857.31;5030972;28;20990;-73
2022/12/29 10:06:37;;;;;;;5.97;2.00;;;10.80;99.90;;;9.88;100.00;96865.00;5034286;28;20473;-71
2022/12/29 10:09:14;;;;;;;4.93;2.10;;;10.70;99.90;;;9.85;100.00;96862.09;5044573;28;20424;-72
2022/12/29 10:12:03;;;;;;;3.53;2.08;;;10.70;99.90;;;9.72;100.00;96868.63;5030731;28;20397;-72
2022/12/29 10:14:58;;;;;;;2.88;1.88;;;10.70;99.90;;;9.76;100.00;96866.28;5039701;28;20494;-72
2022/12/29 10:17:39;;;;;;;5.75;2.38;;;10.70;99.90;;;10.06;100.00;96853.97;5034519;28;20435;-72
2022/12/29 10:20:28;;;;;;;5.10;2.15;;;10.80;99.90;;;9.85;100.00;96862.84;5032080;28;20475;-72
2022/12/29 10:23:24;;;;;;;5.72;2.15;;;10.80;99.90;;;10.02;100.00;96863.44;5034351;28;20485;-72
2022/12/29 10:25:54;;;;;;;3.03;2.00;;;10.90;99.90;;;10.13;100.00;96861.66;5036271;28;20446;-71
2022/12/29 10:28:24;;;;;;;5.45;1.92;;;11.10;99.90;;;10.21;100.00;96861.16;5031924;28;20395;-73
2022/12/29 10:30:53;;;;;;;4.07;1.88;;;11.10;99.90;;;10.02;100.00;96865.31;5031139;28;20748;-73
2022/12/29 10:33:23;;;;;;;2.30;1.73;;;10.90;99.90;;;10.05;100.00;96856.84;5029540;28;21006;-71
2022/12/29 10:35:51;;;;;;;2.88;2.00;;;10.90;99.90;;;10.27;100.00;96864.63;5042335;28;20389;-73
2022/12/29 10:38:25;;;;;;;3.95;1.85;;;11.00;99.90;;;10.26;100.00;96858.53;5041928;28;20808;-73
2022/12/29 10:40:57;;;;;;;3.13;1.80;;;11.10;99.90;;;10.29;100.00;96859.88;5042014;28;20397;-72
2022/12/29 10:43:27;;;;;;;3.97;1.80;;;11.10;99.90;;;10.45;100.00;96864.09;5034893;28;20407;-72
2022/12/29 10:45:57;;;;;;;7.17;2.47;;;11.20;99.90;;;10.66;100.00;96865.72;5033235;28;20387;-72
2022/12/29 10:48:29;;;;;;;5.75;1.90;;;11.50;99.90;;;10.72;100.00;96856.72;5042198;28;20414;-72
2022/12/29 10:50:59;;;;;;;4.63;2.30;;;11.60;99.90;;;10.98;100.00;96865.44;5047254;28;20403;-72
2022/12/29 10:53:34;;;;;;;2.90;1.90;;;11.70;99.90;;;10.93;100.00;96852.22;5051507;28;20430;-72
2022/12/29 10:56:04;;;;;;;3.30;2.13;;;11.70;99.90;;;11.60;100.00;96851.81;5033064;28;20400;-72
2022/12/29 10:58:32;;;;;;;3.25;1.70;;;12.40;99.90;;;12.96;100.00;96853.97;5032925;28;20395;-71
2022/12/29 11:00:59;;;;;;;4.13;1.88;;;13.60;99.90;;;13.53;100.00;96853.22;5032840;28;20410;-71
2022/12/29 11:04:00;;;;;;;3.80;1.90;;;14.40;99.90;;;13.88;100.00;96859.97;5032073;28;20885;-72
2022/12/29 11:06:29;;;;;;;3.85;1.88;;;14.70;99.90;;;13.60;100.00;96852.88;5028958;28;20885;-72
2022/12/29 11:08:59;;;;;;;3.15;1.77;;;14.50;99.90;;;12.93;100.00;96859.88;5047144;28;20456;-72
2022/12/29 11:11:32;;;;;;;4.88;1.88;;;13.90;99.90;;;12.47;100.00;96857.56;5042410;28;21486;-72